createdAt,value
2023-01-19T00:08:36.395Z,1.31
2023-01-19T00:18:39.465Z,1.30
2023-01-19T00:28:44.901Z,1.29
2023-01-19T00:38:49.602Z,1.24
2023-01-19T00:48:55.721Z,1.21
2023-01-19T00:58:59.078Z,1.25
2023-01-19T01:09:12.176Z,1.32
2023-01-19T01:19:16.010Z,1.21
2023-01-19T01:29:20.467Z,1.20
2023-01-19T01:39:23.439Z,1.18
2023-01-19T01:49:27.996Z,1.16
2023-01-19T01:59:40.054Z,1.29
2023-01-19T02:10:02.428Z,1.24
2023-01-19T02:20:06.418Z,1.22
2023-01-19T02:30:14.013Z,1.24
2023-01-19T02:40:20.975Z,1.24
2023-01-19T02:50:46.125Z,1.30
2023-01-19T03:00:57.386Z,1.35
2023-01-19T03:11:04.319Z,1.34
2023-01-19T03:21:13.258Z,1.24
2023-01-19T03:31:21.300Z,1.18
2023-01-19T03:41:27.398Z,1.12
2023-01-19T03:51:31.790Z,0.99
2023-01-19T04:01:35.100Z,1.01
2023-01-19T04:11:40.707Z,1.08
2023-01-19T04:21:43.701Z,1.12
2023-01-19T04:31:47.926Z,1.18
2023-01-19T04:41:53.003Z,1.29
2023-01-19T04:52:01.781Z,1.38
2023-01-19T05:02:06.128Z,1.51
2023-01-19T05:12:13.537Z,1.55
2023-01-19T05:22:17.231Z,1.58
2023-01-19T05:32:21.732Z,1.67
2023-01-19T05:42:25.076Z,1.72
2023-01-19T05:52:29.660Z,1.78
2023-01-19T06:02:32.933Z,1.82
2023-01-19T06:12:37.370Z,1.83
2023-01-19T06:22:40.289Z,1.89
2023-01-19T06:32:44.819Z,1.95
2023-01-19T06:42:49.739Z,1.72
2023-01-19T06:53:22.407Z,1.52
2023-01-19T07:03:29.227Z,1.41
2023-01-19T07:13:34.336Z,1.38
2023-01-19T07:23:39.007Z,1.45
2023-01-19T07:33:43.267Z,1.35
2023-01-19T07:43:46.305Z,1.38
2023-01-19T07:53:52.427Z,1.30
2023-01-19T08:03:55.603Z,1.37
2023-01-19T08:14:00.623Z,1.37
2023-01-19T08:24:04.377Z,1.37
2023-01-19T08:34:10.544Z,1.47
2023-01-19T08:44:15.862Z,1.53
2023-01-19T08:54:21.988Z,1.53
2023-01-19T09:04:25.817Z,1.61
2023-01-19T09:14:30.373Z,1.84
2023-01-19T09:24:35.443Z,2.11
2023-01-19T09:34:39.868Z,1.99
2023-01-19T09:44:46.091Z,2.07
2023-01-19T09:54:58.937Z,2.39
2023-01-19T10:05:27.955Z,2.24
2023-01-19T10:15:43.652Z,2.30
2023-01-19T10:25:48.421Z,2.31
2023-01-19T10:35:53.053Z,2.26
2023-01-19T10:46:32.486Z,2.32
2023-01-19T10:56:40.085Z,2.48
2023-01-19T11:06:44.335Z,2.56
2023-01-19T11:16:55.165Z,2.55
2023-01-19T11:27:03.200Z,2.72
2023-01-19T11:37:27.313Z,2.79
2023-01-19T11:47:36.885Z,2.83
2023-01-19T11:57:47.634Z,2.97
2023-01-19T12:07:52.114Z,3.22
2023-01-19T12:18:00.628Z,3.59
2023-01-19T12:28:05.161Z,3.90
2023-01-19T12:38:32.024Z,3.60
2023-01-19T12:48:35.784Z,3.58
2023-01-19T12:58:40.384Z,3.59
2023-01-19T13:09:01.431Z,3.76
2023-01-19T13:19:22.916Z,4.26
2023-01-19T13:29:31.153Z,4.43
2023-01-19T13:39:42.352Z,4.38
2023-01-19T13:50:23.944Z,4.01
2023-01-19T14:00:31.065Z,3.85
2023-01-19T14:10:36.501Z,3.57
2023-01-19T14:20:48.437Z,3.57
2023-01-19T14:30:55.780Z,3.54
2023-01-19T14:41:03.924Z,3.57
2023-01-19T14:51:09.346Z,3.74
2023-01-19T15:01:15.188Z,3.71
2023-01-19T15:11:27.857Z,3.63
2023-01-19T15:21:32.498Z,3.65
2023-01-19T15:31:37.209Z,3.64
2023-01-19T15:42:33.496Z,3.54
2023-01-19T15:52:39.093Z,3.38
2023-01-19T16:02:44.637Z,3.34
2023-01-19T16:12:49.256Z,3.34
2023-01-19T16:22:56.474Z,3.40
2023-01-19T16:33:00.365Z,3.41
2023-01-19T16:43:05.232Z,3.41
2023-01-19T16:53:08.374Z,3.37
2023-01-19T17:03:14.165Z,3.27
2023-01-19T17:13:17.464Z,3.26
2023-01-19T17:23:22.269Z,3.09
2023-01-19T17:33:25.659Z,3.06
2023-01-19T17:43:30.998Z,3.13
2023-01-19T17:53:54.837Z,3.12
2023-01-19T18:03:59.915Z,3.14
2023-01-19T18:14:03.510Z,3.18
2023-01-19T18:24:08.932Z,3.07
2023-01-19T18:34:11.932Z,3.01
2023-01-19T18:44:16.454Z,2.96
2023-01-19T18:54:21.044Z,2.94
2023-01-19T19:04:25.832Z,2.73
2023-01-19T19:14:29.073Z,2.59
2023-01-19T19:24:33.469Z,2.55
2023-01-19T19:34:36.824Z,2.16
2023-01-19T19:44:41.964Z,2.39
2023-01-19T19:54:45.668Z,2.48
2023-01-19T20:04:50.775Z,2.34
2023-01-19T20:15:24.961Z,2.22
2023-01-19T20:25:29.986Z,2.26
2023-01-19T20:35:33.894Z,2.53
2023-01-19T20:45:38.362Z,2.21
2023-01-19T20:55:42.469Z,2.07
2023-01-19T21:05:49.420Z,2.28
2023-01-19T21:15:52.620Z,2.38
2023-01-19T21:25:59.758Z,2.36
2023-01-19T21:36:03.416Z,2.35
2023-01-19T21:46:12.736Z,2.42
2023-01-19T21:56:17.314Z,2.47
2023-01-19T22:06:22.303Z,2.47
2023-01-19T22:16:26.958Z,2.33
2023-01-19T22:37:02.931Z,2.35
2023-01-19T22:47:07.425Z,2.41
2023-01-19T22:57:12.027Z,2.42
2023-01-19T23:07:16.450Z,2.31
2023-01-19T23:17:19.702Z,2.43
2023-01-19T23:27:24.119Z,2.43
2023-01-19T23:37:27.546Z,2.49
2023-01-19T23:47:31.832Z,2.46
2023-01-19T23:57:34.589Z,2.34
